Terminal Aerodrome Forecast
Issued by NWS

Home | Current Version | Previous Version | Text Only | Print | Product List | Glossary On
Versions: 1 2 3 4 5 6 7 8 9 10 11 12 13 14 15 16 17 18 19 20 21 22 23
000
FTUS43 KBIS 250530 AAB
TAFJMS
TAF AMD
KJMS 250530Z 2506/2606 11009KT P6SM OVC007
     FM250700 12010KT P6SM SKC
     FM250900 15013KT P6SM SCT015
      TEMPO 2510/2514 5SM BR BKN015
     FM251600 16016KT P6SM SCT015
     FM260000 14009KT P6SM BKN200=

USA.gov is the U.S. government's official web portal to all federal, state and local government web resources and services.